sensor_id;sensor_type;location;lat;lon;timestamp;pressure;altitude;pressure_sealevel;temperature;humidity
25156;BME280;21913;52.456;13.634;2023-05-29T00:03:18;100883.31;;;15.17;74.66
25156;BME280;21913;52.456;13.634;2023-05-29T00:08:20;100888.50;;;15.17;74.42
25156;BME280;21913;52.456;13.634;2023-05-29T00:13:21;100882.44;;;15.17;74.39
25156;BME280;21913;52.456;13.634;2023-05-29T00:18:23;100889.38;;;15.16;74.43
25156;BME280;21913;52.456;13.634;2023-05-29T00:23:24;100898.94;;;15.17;74.35
25156;BME280;21913;52.456;13.634;2023-05-29T00:28:26;100899.81;;;15.18;74.59
25156;BME280;21913;52.456;13.634;2023-05-29T00:33:28;100893.72;;;15.17;74.43
25156;BME280;21913;52.456;13.634;2023-05-29T00:38:29;100902.41;;;15.18;74.67
25156;BME280;21913;52.456;13.634;2023-05-29T00:43:31;100916.31;;;15.18;74.72
25156;BME280;21913;52.456;13.634;2023-05-29T00:48:32;100915.44;;;15.19;74.55
25156;BME280;21913;52.456;13.634;2023-05-29T00:53:34;100916.31;;;15.18;74.60
25156;BME280;21913;52.456;13.634;2023-05-29T00:58:36;100920.66;;;15.18;74.46
25156;BME280;21913;52.456;13.634;2023-05-29T01:03:38;100925.00;;;15.17;74.37
25156;BME280;21913;52.456;13.634;2023-05-29T01:08:39;100918.91;;;15.18;74.72
25156;BME280;21913;52.456;13.634;2023-05-29T01:13:42;100935.41;;;15.19;74.57
25156;BME280;21913;52.456;13.634;2023-05-29T01:19:00;100936.28;;;15.19;74.38
25156;BME280;21913;52.456;13.634;2023-05-29T01:29:22;100948.44;;;15.19;74.31
25156;BME280;21913;52.456;13.634;2023-05-29T01:34:24;100947.59;;;15.18;74.22
25156;BME280;21913;52.456;13.634;2023-05-29T01:39:26;100953.69;;;15.17;74.34
25156;BME280;21913;52.456;13.634;2023-05-29T01:44:29;100950.19;;;15.18;74.44
25156;BME280;21913;52.456;13.634;2023-05-29T01:49:31;100952.81;;;15.17;74.46
25156;BME280;21913;52.456;13.634;2023-05-29T01:54:34;100951.94;;;15.18;74.26
25156;BME280;21913;52.456;13.634;2023-05-29T01:59:37;100958.88;;;15.19;74.22
25156;BME280;21913;52.456;13.634;2023-05-29T02:04:38;100958.03;;;15.18;74.49
25156;BME280;21913;52.456;13.634;2023-05-29T02:09:40;100968.44;;;15.18;74.48
25156;BME280;21913;52.456;13.634;2023-05-29T02:14:42;100963.22;;;15.18;74.40
25156;BME280;21913;52.456;13.634;2023-05-29T02:19:44;100965.81;;;15.20;74.39
25156;BME280;21913;52.456;13.634;2023-05-29T02:24:46;100969.31;;;15.17;74.42
25156;BME280;21913;52.456;13.634;2023-05-29T02:29:47;100964.09;;;15.17;74.38
25156;BME280;21913;52.456;13.634;2023-05-29T02:34:49;100967.59;;;15.18;74.14
25156;BME280;21913;52.456;13.634;2023-05-29T02:39:51;100975.41;;;15.18;74.51
25156;BME280;21913;52.456;13.634;2023-05-29T02:44:52;100974.53;;;15.17;74.33
25156;BME280;21913;52.456;13.634;2023-05-29T02:49:54;100970.19;;;15.18;74.35
25156;BME280;21913;52.456;13.634;2023-05-29T02:54:58;100977.16;;;15.17;74.34
25156;BME280;21913;52.456;13.634;2023-05-29T03:00:00;100979.75;;;15.17;74.51
25156;BME280;21913;52.456;13.634;2023-05-29T03:05:03;100971.06;;;15.18;74.45
25156;BME280;21913;52.456;13.634;2023-05-29T03:10:06;100971.06;;;15.17;74.16
25156;BME280;21913;52.456;13.634;2023-05-29T03:15:08;100977.16;;;15.17;74.18
25156;BME280;21913;52.456;13.634;2023-05-29T03:20:10;100975.41;;;15.18;74.27
25156;BME280;21913;52.456;13.634;2023-05-29T03:25:12;100972.78;;;15.18;74.34
25156;BME280;21913;52.456;13.634;2023-05-29T03:30:14;100984.09;;;15.18;74.32
25156;BME280;21913;52.456;13.634;2023-05-29T03:35:16;100978.88;;;15.18;74.12
25156;BME280;21913;52.456;13.634;2023-05-29T03:40:19;100976.25;;;15.18;74.20
25156;BME280;21913;52.456;13.634;2023-05-29T03:45:21;100986.72;;;15.17;74.35
25156;BME280;21913;52.456;13.634;2023-05-29T03:50:22;100990.19;;;15.17;74.34
25156;BME280;21913;52.456;13.634;2023-05-29T03:55:26;100998.00;;;15.17;74.09
25156;BME280;21913;52.456;13.634;2023-05-29T04:00:27;100989.31;;;15.17;73.98
25156;BME280;21913;52.456;13.634;2023-05-29T04:05:34;100996.25;;;15.16;74.02
25156;BME280;21913;52.456;13.634;2023-05-29T04:10:35;100998.84;;;15.16;74.31
25156;BME280;21913;52.456;13.634;2023-05-29T04:15:37;100995.38;;;15.17;73.99
25156;BME280;21913;52.456;13.634;2023-05-29T04:20:38;100997.13;;;15.17;73.94
25156;BME280;21913;52.456;13.634;2023-05-29T04:25:40;101004.06;;;15.16;74.07
25156;BME280;21913;52.456;13.634;2023-05-29T04:30:43;101012.78;;;15.17;73.98
25156;BME280;21913;52.456;13.634;2023-05-29T04:35:44;101017.09;;;15.18;74.07
25156;BME280;21913;52.456;13.634;2023-05-29T04:40:46;101014.47;;;15.16;74.27
25156;BME280;21913;52.456;13.634;2023-05-29T04:45:51;101017.09;;;15.16;74.18
25156;BME280;21913;52.456;13.634;2023-05-29T04:50:53;101032.72;;;15.16;74.19
25156;BME280;21913;52.456;13.634;2023-05-29T04:55:54;101037.94;;;15.16;74.04
25156;BME280;21913;52.456;13.634;2023-05-29T05:00:56;101033.63;;;15.17;73.97
25156;BME280;21913;52.456;13.634;2023-05-29T05:05:59;101041.44;;;15.17;73.98
25156;BME280;21913;52.456;13.634;2023-05-29T05:11:01;101044.06;;;15.17;74.08
25156;BME280;21913;52.456;13.634;2023-05-29T05:16:04;101046.66;;;15.17;73.94
25156;BME280;21913;52.456;13.634;2023-05-29T05:21:07;101042.31;;;15.17;73.93
25156;BME280;21913;52.456;13.634;2023-05-29T05:26:10;101045.75;;;15.16;74.11
25156;BME280;21913;52.456;13.634;2023-05-29T05:31:12;101035.34;;;15.16;74.27
25156;BME280;21913;52.456;13.634;2023-05-29T05:36:14;101035.34;;;15.16;74.17
25156;BME280;21913;52.456;13.634;2023-05-29T05:41:16;101034.47;;;15.16;74.11
25156;BME280;21913;52.456;13.634;2023-05-29T05:46:18;101039.69;;;15.16;73.91
25156;BME280;21913;52.456;13.634;2023-05-29T05:51:20;101049.25;;;15.15;74.08
25156;BME280;21913;52.456;13.634;2023-05-29T05:56:22;101053.59;;;15.16;73.91
25156;BME280;21913;52.456;13.634;2023-05-29T06:01:24;101057.09;;;15.17;73.89
25156;BME280;21913;52.456;13.634;2023-05-29T06:06:26;101064.00;;;15.16;73.85
25156;BME280;21913;52.456;13.634;2023-05-29T06:11:28;101066.63;;;15.16;73.95
25156;BME280;21913;52.456;13.634;2023-05-29T06:16:29;101070.97;;;15.16;74.13
25156;BME280;21913;52.456;13.634;2023-05-29T06:21:31;101073.59;;;15.17;73.98
25156;BME280;21913;52.456;13.634;2023-05-29T06:26:33;101073.59;;;15.17;73.84
25156;BME280;21913;52.456;13.634;2023-05-29T06:31:35;101063.16;;;15.17;73.84
25156;BME280;21913;52.456;13.634;2023-05-29T06:36:37;101064.00;;;15.16;74.13
25156;BME280;21913;52.456;13.634;2023-05-29T06:41:40;101067.50;;;15.17;73.93
25156;BME280;21913;52.456;13.634;2023-05-29T06:46:42;101064.91;;;15.17;74.05
25156;BME280;21913;52.456;13.634;2023-05-29T06:51:44;101070.13;;;15.17;73.92
25156;BME280;21913;52.456;13.634;2023-05-29T06:57:06;101079.66;;;15.18;73.94
25156;BME280;21913;52.456;13.634;2023-05-29T07:02:11;101086.59;;;15.20;73.61
25156;BME280;21913;52.456;13.634;2023-05-29T07:07:13;101090.94;;;15.21;73.52
25156;BME280;21913;52.456;13.634;2023-05-29T07:12:15;101091.81;;;15.23;73.46
25156;BME280;21913;52.456;13.634;2023-05-29T07:17:16;101090.94;;;15.24;73.68
25156;BME280;21913;52.456;13.634;2023-05-29T07:22:18;101104.84;;;15.26;73.68
25156;BME280;21913;52.456;13.634;2023-05-29T07:27:20;101092.66;;;15.27;73.37
25156;BME280;21913;52.456;13.634;2023-05-29T07:32:21;101108.31;;;15.29;73.67
25156;BME280;21913;52.456;13.634;2023-05-29T07:37:24;101103.09;;;15.30;73.52
25156;BME280;21913;52.456;13.634;2023-05-29T07:42:26;101103.97;;;15.31;73.55
25156;BME280;21913;52.456;13.634;2023-05-29T07:47:28;101106.56;;;15.32;73.35
25156;BME280;21913;52.456;13.634;2023-05-29T07:52:30;101109.16;;;15.32;73.60
25156;BME280;21913;52.456;13.634;2023-05-29T07:57:32;101107.41;;;15.33;73.52
25156;BME280;21913;52.456;13.634;2023-05-29T08:02:35;101114.41;;;15.34;73.58
25156;BME280;21913;52.456;13.634;2023-05-29T08:07:55;101114.41;;;15.34;73.38
25156;BME280;21913;52.456;13.634;2023-05-29T08:12:57;101115.25;;;15.34;73.74
25156;BME280;21913;52.456;13.634;2023-05-29T08:17:58;101120.47;;;15.34;73.41
25156;BME280;21913;52.456;13.634;2023-05-29T08:23:00;101115.25;;;15.34;73.50
25156;BME280;21913;52.456;13.634;2023-05-29T08:28:01;101116.13;;;15.35;73.58
25156;BME280;21913;52.456;13.634;2023-05-29T08:33:03;101106.56;;;15.35;73.67
25156;BME280;21913;52.456;13.634;2023-05-29T08:38:05;101123.06;;;15.36;73.72
25156;BME280;21913;52.456;13.634;2023-05-29T08:48:11;101121.31;;;15.38;73.48
25156;BME280;21913;52.456;13.634;2023-05-29T08:53:16;101124.81;;;15.37;73.52
25156;BME280;21913;52.456;13.634;2023-05-29T08:58:21;101122.22;;;15.35;73.40
25156;BME280;21913;52.456;13.634;2023-05-29T09:03:23;101128.28;;;15.36;73.68
25156;BME280;21913;52.456;13.634;2023-05-29T09:08:25;101137.84;;;15.35;73.52
25156;BME280;21913;52.456;13.634;2023-05-29T09:13:27;101133.50;;;15.36;73.84
25156;BME280;21913;52.456;13.634;2023-05-29T09:18:31;101132.63;;;15.35;73.64
25156;BME280;21913;52.456;13.634;2023-05-29T09:23:33;101135.25;;;15.35;73.70
25156;BME280;21913;52.456;13.634;2023-05-29T09:28:34;101137.00;;;15.35;73.77
25156;BME280;21913;52.456;13.634;2023-05-29T09:33:47;101137.00;;;15.33;73.51
25156;BME280;21913;52.456;13.634;2023-05-29T09:38:49;101142.19;;;15.35;73.83
25156;BME280;21913;52.456;13.634;2023-05-29T09:43:53;101137.00;;;15.35;73.60
25156;BME280;21913;52.456;13.634;2023-05-29T09:49:01;101131.78;;;15.35;73.78
25156;BME280;21913;52.456;13.634;2023-05-29T09:54:13;101132.63;;;15.35;73.83
25156;BME280;21913;52.456;13.634;2023-05-29T09:59:15;101134.38;;;15.35;73.64
25156;BME280;21913;52.456;13.634;2023-05-29T10:04:17;101136.13;;;15.34;73.60
25156;BME280;21913;52.456;13.634;2023-05-29T10:09:19;101127.44;;;15.34;74.03
25156;BME280;21913;52.456;13.634;2023-05-29T10:14:22;101126.56;;;15.35;73.86
25156;BME280;21913;52.456;13.634;2023-05-29T10:19:27;101122.22;;;15.34;74.02
25156;BME280;21913;52.456;13.634;2023-05-29T10:24:31;101129.16;;;15.35;73.92
25156;BME280;21913;52.456;13.634;2023-05-29T10:29:49;101119.63;;;15.34;73.57
25156;BME280;21913;52.456;13.634;2023-05-29T10:40:24;101128.31;;;15.34;73.92
25156;BME280;21913;52.456;13.634;2023-05-29T10:55:45;101108.31;;;15.32;74.05
25156;BME280;21913;52.456;13.634;2023-05-29T11:00:47;101110.91;;;15.32;73.67
25156;BME280;21913;52.456;13.634;2023-05-29T11:05:59;101105.72;;;15.33;73.94
25156;BME280;21913;52.456;13.634;2023-05-29T11:11:02;101100.47;;;15.32;74.06
25156;BME280;21913;52.456;13.634;2023-05-29T11:21:58;101107.41;;;15.33;74.21
25156;BME280;21913;52.456;13.634;2023-05-29T11:27:06;101096.13;;;15.32;74.07
25156;BME280;21913;52.456;13.634;2023-05-29T11:32:12;101092.69;;;15.33;74.06
25156;BME280;21913;52.456;13.634;2023-05-29T11:37:15;101090.03;;;15.32;74.10
25156;BME280;21913;52.456;13.634;2023-05-29T11:42:17;101102.22;;;15.31;74.19
25156;BME280;21913;52.456;13.634;2023-05-29T11:47:18;101095.25;;;15.32;74.29
25156;BME280;21913;52.456;13.634;2023-05-29T11:52:20;101090.03;;;15.32;74.04
25156;BME280;21913;52.456;13.634;2023-05-29T11:57:22;101090.06;;;15.30;74.06
25156;BME280;21913;52.456;13.634;2023-05-29T12:02:23;101088.31;;;15.31;74.33
25156;BME280;21913;52.456;13.634;2023-05-29T12:07:25;101084.84;;;15.32;74.17
25156;BME280;21913;52.456;13.634;2023-05-29T12:12:26;101077.00;;;15.32;73.88
25156;BME280;21913;52.456;13.634;2023-05-29T12:17:28;101077.03;;;15.30;74.10
25156;BME280;21913;52.456;13.634;2023-05-29T12:22:34;101080.50;;;15.31;74.33
25156;BME280;21913;52.456;13.634;2023-05-29T12:27:37;101083.09;;;15.31;74.01
25156;BME280;21913;52.456;13.634;2023-05-29T12:32:40;101080.50;;;15.31;74.24
25156;BME280;21913;52.456;13.634;2023-05-29T12:37:49;101075.25;;;15.32;74.11
25156;BME280;21913;52.456;13.634;2023-05-29T12:47:59;101077.88;;;15.31;74.14
25156;BME280;21913;52.456;13.634;2023-05-29T12:58:09;101085.72;;;15.31;74.21
25156;BME280;21913;52.456;13.634;2023-05-29T13:03:10;101081.38;;;15.31;74.14
25156;BME280;21913;52.456;13.634;2023-05-29T13:08:12;101072.69;;;15.31;74.15
25156;BME280;21913;52.456;13.634;2023-05-29T13:13:13;101070.06;;;15.31;74.08
25156;BME280;21913;52.456;13.634;2023-05-29T13:18:15;101065.72;;;15.30;74.19
25156;BME280;21913;52.456;13.634;2023-05-29T13:23:16;101063.09;;;15.31;74.15
25156;BME280;21913;52.456;13.634;2023-05-29T13:28:18;101065.25;;;16.27;66.84
25156;BME280;21913;52.456;13.634;2023-05-29T13:33:19;101056.59;;;17.21;61.00
25156;BME280;21913;52.456;13.634;2023-05-29T13:38:21;101058.53;;;17.77;58.79
25156;BME280;21913;52.456;13.634;2023-05-29T13:43:22;101061.56;;;18.10;57.15
25156;BME280;21913;52.456;13.634;2023-05-29T13:48:27;101062.28;;;18.23;55.28
25156;BME280;21913;52.456;13.634;2023-05-29T13:53:28;101065.66;;;18.29;54.15
25156;BME280;21913;52.456;13.634;2023-05-29T13:58:30;101062.94;;;18.35;53.94
25156;BME280;21913;52.456;13.634;2023-05-29T14:03:31;101049.75;;;18.42;54.16
25156;BME280;21913;52.456;13.634;2023-05-29T14:08:33;101042.75;;;18.44;54.88
25156;BME280;21913;52.456;13.634;2023-05-29T14:13:34;101042.66;;;18.47;55.71
25156;BME280;21913;52.456;13.634;2023-05-29T14:18:36;101040.91;;;18.47;56.43
25156;BME280;21913;52.456;13.634;2023-05-29T14:23:37;101040.94;;;18.46;56.87
25156;BME280;21913;52.456;13.634;2023-05-29T14:28:39;101039.22;;;18.45;57.43
25156;BME280;21913;52.456;13.634;2023-05-29T14:33:40;101045.34;;;18.42;57.85
25156;BME280;21913;52.456;13.634;2023-05-29T14:38:42;101043.66;;;18.39;58.28
25156;BME280;21913;52.456;13.634;2023-05-29T14:43:44;101040.22;;;18.36;58.52
25156;BME280;21913;52.456;13.634;2023-05-29T14:48:45;101056.00;;;18.33;59.09
25156;BME280;21913;52.456;13.634;2023-05-29T14:53:47;101053.41;;;18.30;59.35
25156;BME280;21913;52.456;13.634;2023-05-29T14:58:48;101053.50;;;18.27;59.65
25156;BME280;21913;52.456;13.634;2023-05-29T15:03:50;101047.47;;;18.22;59.82
25156;BME280;21913;52.456;13.634;2023-05-29T15:08:51;101059.69;;;18.20;60.14
25156;BME280;21913;52.456;13.634;2023-05-29T15:13:53;101049.28;;;18.17;60.32
25156;BME280;21913;52.456;13.634;2023-05-29T15:18:54;101053.69;;;18.13;60.64
25156;BME280;21913;52.456;13.634;2023-05-29T15:23:56;101051.09;;;18.10;60.72
25156;BME280;21913;52.456;13.634;2023-05-29T15:28:57;101051.19;;;18.05;61.02
25156;BME280;21913;52.456;13.634;2023-05-29T15:33:59;101054.72;;;18.03;61.26
25156;BME280;21913;52.456;13.634;2023-05-29T15:39:00;101051.25;;;18.01;61.37
25156;BME280;21913;52.456;13.634;2023-05-29T15:44:02;101051.31;;;17.96;61.60
25156;BME280;21913;52.456;13.634;2023-05-29T15:49:03;101046.13;;;17.95;61.96
25156;BME280;21913;52.456;13.634;2023-05-29T15:54:05;101041.81;;;17.91;61.93
25156;BME280;21913;52.456;13.634;2023-05-29T15:59:06;101042.69;;;17.88;62.18
25156;BME280;21913;52.456;13.634;2023-05-29T16:04:08;101033.16;;;17.85;62.28
25156;BME280;21913;52.456;13.634;2023-05-29T16:09:09;101041.03;;;17.82;62.38
25156;BME280;21913;52.456;13.634;2023-05-29T16:14:11;101043.69;;;17.79;62.39
25156;BME280;21913;52.456;13.634;2023-05-29T16:19:12;101037.63;;;17.76;62.57
25156;BME280;21913;52.456;13.634;2023-05-29T16:24:14;101035.00;;;17.76;62.82
25156;BME280;21913;52.456;13.634;2023-05-29T16:29:15;101033.31;;;17.73;62.97
25156;BME280;21913;52.456;13.634;2023-05-29T16:34:17;101051.59;;;17.72;62.99
25156;BME280;21913;52.456;13.634;2023-05-29T16:39:18;101052.56;;;17.68;63.13
25156;BME280;21913;52.456;13.634;2023-05-29T16:44:20;101048.22;;;17.65;63.38
25156;BME280;21913;52.456;13.634;2023-05-29T16:49:22;101050.88;;;17.62;63.26
25156;BME280;21913;52.456;13.634;2023-05-29T16:54:23;101048.28;;;17.59;63.49
25156;BME280;21913;52.456;13.634;2023-05-29T16:59:29;101054.41;;;17.58;63.68
25156;BME280;21913;52.456;13.634;2023-05-29T17:04:31;101056.16;;;17.56;63.69
25156;BME280;21913;52.456;13.634;2023-05-29T17:09:32;101059.72;;;17.53;63.89
25156;BME280;21913;52.456;13.634;2023-05-29T17:14:35;101049.25;;;17.50;63.85
25156;BME280;21913;52.456;13.634;2023-05-29T17:19:36;101058.91;;;17.48;63.90
25156;BME280;21913;52.456;13.634;2023-05-29T17:24:38;101059.81;;;17.46;64.25
25156;BME280;21913;52.456;13.634;2023-05-29T17:29:39;101060.66;;;17.45;64.32
25156;BME280;21913;52.456;13.634;2023-05-29T17:34:41;101065.09;;;17.41;64.21
25156;BME280;21913;52.456;13.634;2023-05-29T17:39:43;101071.22;;;17.40;64.49
25156;BME280;21913;52.456;13.634;2023-05-29T17:44:44;101072.97;;;17.38;64.37
25156;BME280;21913;52.456;13.634;2023-05-29T17:49:46;101069.47;;;17.38;64.63
25156;BME280;21913;52.456;13.634;2023-05-29T17:54:47;101067.78;;;17.35;64.43
25156;BME280;21913;52.456;13.634;2023-05-29T17:59:49;101068.66;;;17.32;64.86
25156;BME280;21913;52.456;13.634;2023-05-29T18:04:50;101075.66;;;17.32;64.67
25156;BME280;21913;52.456;13.634;2023-05-29T18:09:52;101081.81;;;17.29;64.87
25156;BME280;21913;52.456;13.634;2023-05-29T18:14:53;101073.09;;;17.27;64.98
25156;BME280;21913;52.456;13.634;2023-05-29T18:19:55;101076.59;;;17.26;64.95
25156;BME280;21913;52.456;13.634;2023-05-29T18:24:56;101076.63;;;17.25;65.11
25156;BME280;21913;52.456;13.634;2023-05-29T18:29:58;101082.72;;;17.22;65.10
25156;BME280;21913;52.456;13.634;2023-05-29T18:34:59;101082.75;;;17.21;65.17
25156;BME280;21913;52.456;13.634;2023-05-29T18:40:01;101095.84;;;17.19;65.14
25156;BME280;21913;52.456;13.634;2023-05-29T18:45:03;101095.00;;;17.19;65.24
25156;BME280;21913;52.456;13.634;2023-05-29T18:50:05;101105.44;;;17.17;65.45
25156;BME280;21913;52.456;13.634;2023-05-29T18:55:07;101104.59;;;17.15;65.38
25156;BME280;21913;52.456;13.634;2023-05-29T19:00:10;101107.25;;;17.14;65.73
25156;BME280;21913;52.456;13.634;2023-05-29T19:05:11;101107.25;;;17.12;65.60
25156;BME280;21913;52.456;13.634;2023-05-29T19:10:13;101104.66;;;17.09;65.67
25156;BME280;21913;52.456;13.634;2023-05-29T19:15:15;101110.75;;;17.09;65.80
25156;BME280;21913;52.456;13.634;2023-05-29T19:20:16;101113.41;;;17.08;65.60
25156;BME280;21913;52.456;13.634;2023-05-29T19:25:18;101123.00;;;17.07;65.86
25156;BME280;21913;52.456;13.634;2023-05-29T19:30:20;101120.38;;;17.06;65.99
25156;BME280;21913;52.456;13.634;2023-05-29T19:35:21;101123.00;;;17.04;65.97
25156;BME280;21913;52.456;13.634;2023-05-29T19:40:23;101128.25;;;17.03;65.67
25156;BME280;21913;52.456;13.634;2023-05-29T19:45:24;101131.78;;;17.02;65.90
25156;BME280;21913;52.456;13.634;2023-05-29T19:50:26;101138.72;;;17.01;66.03
25156;BME280;21913;52.456;13.634;2023-05-29T19:55:27;101137.00;;;16.99;65.89
25156;BME280;21913;52.456;13.634;2023-05-29T20:00:29;101134.41;;;16.99;65.97
25156;BME280;21913;52.456;13.634;2023-05-29T20:05:31;101148.34;;;16.98;66.04
25156;BME280;21913;52.456;13.634;2023-05-29T20:10:32;101146.63;;;16.97;66.11
25156;BME280;21913;52.456;13.634;2023-05-29T20:15:34;101150.97;;;16.95;66.06
25156;BME280;21913;52.456;13.634;2023-05-29T20:20:35;101158.81;;;16.95;65.91
25156;BME280;21913;52.456;13.634;2023-05-29T20:25:37;101149.25;;;16.94;66.13
25156;BME280;21913;52.456;13.634;2023-05-29T20:30:38;101159.72;;;16.92;65.94
25156;BME280;21913;52.456;13.634;2023-05-29T20:35:40;101166.72;;;16.92;65.91
25156;BME280;21913;52.456;13.634;2023-05-29T20:40:41;101161.47;;;16.92;66.14
25156;BME280;21913;52.456;13.634;2023-05-29T20:45:43;101171.94;;;16.90;66.18
25156;BME280;21913;52.456;13.634;2023-05-29T20:50:45;101176.31;;;16.88;66.27
25156;BME280;21913;52.456;13.634;2023-05-29T20:55:46;101182.41;;;16.89;66.02
25156;BME280;21913;52.456;13.634;2023-05-29T21:00:48;101181.56;;;16.87;65.92
25156;BME280;21913;52.456;13.634;2023-05-29T21:05:49;101176.31;;;16.85;66.07
25156;BME280;21913;52.456;13.634;2023-05-29T21:10:51;101185.06;;;16.86;66.13
25156;BME280;21913;52.456;13.634;2023-05-29T21:15:53;101176.31;;;16.85;66.15
25156;BME280;21913;52.456;13.634;2023-05-29T21:20:55;101177.22;;;16.82;66.26
25156;BME280;21913;52.456;13.634;2023-05-29T21:25:56;101175.50;;;16.81;66.25
25156;BME280;21913;52.456;13.634;2023-05-29T21:30:58;101186.84;;;16.80;66.37
25156;BME280;21913;52.456;13.634;2023-05-29T21:35:59;101190.31;;;16.79;66.10
25156;BME280;21913;52.456;13.634;2023-05-29T21:41:01;101186.81;;;16.79;66.37
25156;BME280;21913;52.456;13.634;2023-05-29T21:46:03;101189.44;;;16.79;66.26
25156;BME280;21913;52.456;13.634;2023-05-29T21:51:05;101190.31;;;16.78;66.16
25156;BME280;21913;52.456;13.634;2023-05-29T21:56:06;101192.09;;;16.76;66.48
25156;BME280;21913;52.456;13.634;2023-05-29T22:01:08;101204.28;;;16.75;66.16
25156;BME280;21913;52.456;13.634;2023-05-29T22:06:10;101202.53;;;16.74;66.19
25156;BME280;21913;52.456;13.634;2023-05-29T22:11:12;101204.28;;;16.74;66.35
25156;BME280;21913;52.456;13.634;2023-05-29T22:16:14;101211.28;;;16.72;66.08
25156;BME280;21913;52.456;13.634;2023-05-29T22:21:15;101211.25;;;16.73;66.20
25156;BME280;21913;52.456;13.634;2023-05-29T22:26:17;101206.06;;;16.72;66.34
25156;BME280;21913;52.456;13.634;2023-05-29T22:31:19;101201.72;;;16.71;66.20
25156;BME280;21913;52.456;13.634;2023-05-29T22:36:21;101203.44;;;16.70;66.16
25156;BME280;21913;52.456;13.634;2023-05-29T22:41:22;101206.03;;;16.69;66.42
25156;BME280;21913;52.456;13.634;2023-05-29T22:46:26;101206.91;;;16.68;66.36
25156;BME280;21913;52.456;13.634;2023-05-29T22:51:28;101198.19;;;16.67;66.33
25156;BME280;21913;52.456;13.634;2023-05-29T22:56:29;101211.28;;;16.67;66.35
25156;BME280;21913;52.456;13.634;2023-05-29T23:01:31;101209.53;;;16.66;66.47
25156;BME280;21913;52.456;13.634;2023-05-29T23:06:32;101217.38;;;16.66;66.57
25156;BME280;21913;52.456;13.634;2023-05-29T23:11:34;101218.25;;;16.65;66.26
25156;BME280;21913;52.456;13.634;2023-05-29T23:16:35;101215.66;;;16.64;66.58
25156;BME280;21913;52.456;13.634;2023-05-29T23:21:37;101225.22;;;16.63;66.32
25156;BME280;21913;52.456;13.634;2023-05-29T23:26:38;101220.91;;;16.64;66.42
25156;BME280;21913;52.456;13.634;2023-05-29T23:31:40;101218.25;;;16.62;66.51
25156;BME280;21913;52.456;13.634;2023-05-29T23:36:43;101217.38;;;16.63;66.44
25156;BME280;21913;52.456;13.634;2023-05-29T23:41:44;101227.00;;;16.61;66.64
25156;BME280;21913;52.456;13.634;2023-05-29T23:46:46;101223.50;;;16.61;66.35
25156;BME280;21913;52.456;13.634;2023-05-29T23:51:47;101230.47;;;16.60;66.47
25156;BME280;21913;52.456;13.634;2023-05-29T23:56:49;101229.63;;;16.60;66.64
